sensor_id;sensor_type;location;lat;lon;timestamp;pressure;altitude;pressure_sealevel;temperature;humidity
63194;BME280;49289;51.670;5.624;2022-09-09T00:01:00;100918.41;;;21.24;69.39
63194;BME280;49289;51.670;5.624;2022-09-09T00:02:47;100918.69;;;21.29;69.02
63194;BME280;49289;51.670;5.624;2022-09-09T00:04:36;100920.10;;;21.30;68.95
63194;BME280;49289;51.670;5.624;2022-09-09T00:06:26;100932.27;;;21.40;68.86
63194;BME280;49289;51.670;5.624;2022-09-09T00:08:13;100915.51;;;21.30;68.89
63194;BME280;49289;51.670;5.624;2022-09-09T00:10:03;100932.86;;;21.36;69.06
63194;BME280;49289;51.670;5.624;2022-09-09T00:11:49;100931.59;;;21.38;69.11
63194;BME280;49289;51.670;5.624;2022-09-09T00:13:37;100916.44;;;21.26;69.13
63194;BME280;49289;51.670;5.624;2022-09-09T00:15:25;100926.44;;;21.32;68.75
63194;BME280;49289;51.670;5.624;2022-09-09T00:17:14;100930.28;;;21.31;69.08
63194;BME280;49289;51.670;5.624;2022-09-09T00:19:03;100909.23;;;21.14;69.04
63194;BME280;49289;51.670;5.624;2022-09-09T00:20:49;100908.81;;;21.10;68.97
63194;BME280;49289;51.670;5.624;2022-09-09T00:22:37;100922.15;;;21.20;68.92
63194;BME280;49289;51.670;5.624;2022-09-09T00:24:26;100918.75;;;21.23;68.86
63194;BME280;49289;51.670;5.624;2022-09-09T00:26:14;100905.81;;;21.11;68.61
63194;BME280;49289;51.670;5.624;2022-09-09T00:28:02;100919.16;;;21.16;68.88
63194;BME280;49289;51.670;5.624;2022-09-09T00:29:51;100919.58;;;21.10;68.84
63194;BME280;49289;51.670;5.624;2022-09-09T00:31:38;100918.09;;;21.03;68.91
63194;BME280;49289;51.670;5.624;2022-09-09T00:33:25;100898.13;;;21.00;68.82
63194;BME280;49289;51.670;5.624;2022-09-09T00:35:17;100904.47;;;20.96;68.73
63194;BME280;49289;51.670;5.624;2022-09-09T00:37:03;100900.88;;;21.00;68.61
63194;BME280;49289;51.670;5.624;2022-09-09T00:38:37;100902.63;;;21.01;68.44
63194;BME280;49289;51.670;5.624;2022-09-09T00:40:29;100914.00;;;21.07;68.48
63194;BME280;49289;51.670;5.624;2022-09-09T00:42:20;100916.17;;;21.05;68.37
63194;BME280;49289;51.670;5.624;2022-09-09T00:44:11;100911.56;;;20.98;68.43
63194;BME280;49289;51.670;5.624;2022-09-09T00:46:16;100913.16;;;20.94;68.59
63194;BME280;49289;51.670;5.624;2022-09-09T00:48:03;100910.23;;;20.94;68.57
63194;BME280;49289;51.670;5.624;2022-09-09T00:49:56;100912.23;;;20.94;68.71
63194;BME280;49289;51.670;5.624;2022-09-09T00:51:46;100893.73;;;20.84;68.69
63194;BME280;49289;51.670;5.624;2022-09-09T00:53:41;100905.72;;;21.00;68.41
63194;BME280;49289;51.670;5.624;2022-09-09T00:55:28;100897.63;;;20.99;68.64
63194;BME280;49289;51.670;5.624;2022-09-09T00:57:28;100901.32;;;21.04;68.43
63194;BME280;49289;51.670;5.624;2022-09-09T00:59:07;100897.80;;;20.94;68.59
63194;BME280;49289;51.670;5.624;2022-09-09T01:00:52;100892.37;;;20.99;68.47
63194;BME280;49289;51.670;5.624;2022-09-09T01:02:42;100886.55;;;21.03;68.30
63194;BME280;49289;51.670;5.624;2022-09-09T01:04:29;100874.78;;;20.94;68.57
63194;BME280;49289;51.670;5.624;2022-09-09T01:06:30;100892.36;;;21.01;68.59
63194;BME280;49289;51.670;5.624;2022-09-09T01:08:15;100873.78;;;20.69;69.29
63194;BME280;49289;51.670;5.624;2022-09-09T01:10:07;100883.88;;;20.85;69.04
63194;BME280;49289;51.670;5.624;2022-09-09T01:11:59;100887.53;;;20.97;68.60
63194;BME280;49289;51.670;5.624;2022-09-09T01:13:44;100872.28;;;20.87;68.63
63194;BME280;49289;51.670;5.624;2022-09-09T01:15:32;100871.37;;;20.83;68.39
63194;BME280;49289;51.670;5.624;2022-09-09T01:17:07;100875.11;;;20.76;68.46
63194;BME280;49289;51.670;5.624;2022-09-09T01:18:55;100892.56;;;20.83;68.66
63194;BME280;49289;51.670;5.624;2022-09-09T01:20:45;100892.61;;;20.81;68.68
63194;BME280;49289;51.670;5.624;2022-09-09T01:22:34;100878.86;;;20.71;68.65
63194;BME280;49289;51.670;5.624;2022-09-09T01:24:27;100878.28;;;20.71;68.61
63194;BME280;49289;51.670;5.624;2022-09-09T01:26:24;100880.95;;;20.72;68.67
63194;BME280;49289;51.670;5.624;2022-09-09T01:28:13;100879.36;;;20.70;68.66
63194;BME280;49289;51.670;5.624;2022-09-09T01:29:59;100875.53;;;20.71;68.67
63194;BME280;49289;51.670;5.624;2022-09-09T01:31:51;100877.19;;;20.77;68.46
63194;BME280;49289;51.670;5.624;2022-09-09T01:33:34;100896.22;;;20.89;68.39
63194;BME280;49289;51.670;5.624;2022-09-09T01:35:22;100874.27;;;20.74;68.64
63194;BME280;49289;51.670;5.624;2022-09-09T01:39:25;100885.22;;;20.86;68.38
63194;BME280;49289;51.670;5.624;2022-09-09T01:41:13;100868.61;;;20.73;68.17
63194;BME280;49289;51.670;5.624;2022-09-09T01:42:48;100865.19;;;20.66;68.46
63194;BME280;49289;51.670;5.624;2022-09-09T01:44:36;100878.95;;;20.71;68.33
63194;BME280;49289;51.670;5.624;2022-09-09T01:46:23;100865.27;;;20.68;68.34
63194;BME280;49289;51.670;5.624;2022-09-09T01:48:10;100866.58;;;20.62;68.28
63194;BME280;49289;51.670;5.624;2022-09-09T01:49:57;100882.28;;;20.74;68.52
63194;BME280;49289;51.670;5.624;2022-09-09T01:51:44;100881.20;;;20.77;68.18
63194;BME280;49289;51.670;5.624;2022-09-09T01:53:31;100866.61;;;20.65;68.45
63194;BME280;49289;51.670;5.624;2022-09-09T01:55:19;100866.61;;;20.67;68.64
63194;BME280;49289;51.670;5.624;2022-09-09T01:57:08;100861.94;;;20.70;68.25
63194;BME280;49289;51.670;5.624;2022-09-09T01:59:00;100861.44;;;20.66;68.33
63194;BME280;49289;51.670;5.624;2022-09-09T02:00:32;100875.94;;;20.73;68.69
63194;BME280;49289;51.670;5.624;2022-09-09T02:02:23;100875.78;;;20.67;68.74
63194;BME280;49289;51.670;5.624;2022-09-09T02:04:11;100861.66;;;20.59;68.70
63194;BME280;49289;51.670;5.624;2022-09-09T02:06:00;100854.83;;;20.60;68.79
63194;BME280;49289;51.670;5.624;2022-09-09T02:07:48;100868.52;;;20.77;68.71
63194;BME280;49289;51.670;5.624;2022-09-09T02:09:36;100868.19;;;20.74;68.72
63194;BME280;49289;51.670;5.624;2022-09-09T02:11:11;100861.85;;;20.70;68.69
63194;BME280;49289;51.670;5.624;2022-09-09T02:12:46;100852.84;;;20.69;68.53
63194;BME280;49289;51.670;5.624;2022-09-09T02:14:34;100862.42;;;20.77;68.67
63194;BME280;49289;51.670;5.624;2022-09-09T02:16:22;100859.02;;;20.72;68.75
63194;BME280;49289;51.670;5.624;2022-09-09T02:18:09;100855.92;;;20.80;68.37
63194;BME280;49289;51.670;5.624;2022-09-09T02:19:57;100841.33;;;20.77;68.30
63194;BME280;49289;51.670;5.624;2022-09-09T02:21:43;100844.77;;;20.84;67.91
63194;BME280;49289;51.670;5.624;2022-09-09T02:23:30;100846.16;;;20.81;68.06
63194;BME280;49289;51.670;5.624;2022-09-09T02:25:19;100855.58;;;20.82;67.84
63194;BME280;49289;51.670;5.624;2022-09-09T02:27:06;100859.77;;;20.93;67.55
63194;BME280;49289;51.670;5.624;2022-09-09T02:28:54;100855.52;;;20.88;67.83
63194;BME280;49289;51.670;5.624;2022-09-09T02:30:42;100853.77;;;20.84;67.94
63194;BME280;49289;51.670;5.624;2022-09-09T02:32:30;100848.33;;;20.80;67.95
63194;BME280;49289;51.670;5.624;2022-09-09T02:34:18;100849.33;;;20.94;67.43
63194;BME280;49289;51.670;5.624;2022-09-09T02:36:06;100840.17;;;20.86;67.63
63194;BME280;49289;51.670;5.624;2022-09-09T02:37:54;100856.09;;;20.95;67.36
63194;BME280;49289;51.670;5.624;2022-09-09T02:39:42;100852.66;;;21.01;67.17
63194;BME280;49289;51.670;5.624;2022-09-09T02:41:15;100855.25;;;20.98;67.22
63194;BME280;49289;51.670;5.624;2022-09-09T02:43:03;100862.67;;;20.98;67.06
63194;BME280;49289;51.670;5.624;2022-09-09T02:44:50;100867.34;;;20.99;66.98
63194;BME280;49289;51.670;5.624;2022-09-09T02:46:57;100863.59;;;20.95;67.07
63194;BME280;49289;51.670;5.624;2022-09-09T02:48:44;100847.09;;;20.90;66.99
63194;BME280;49289;51.670;5.624;2022-09-09T02:50:32;100843.42;;;20.88;66.90
63194;BME280;49289;51.670;5.624;2022-09-09T02:52:19;100863.42;;;20.99;67.04
63194;BME280;49289;51.670;5.624;2022-09-09T02:54:09;100858.60;;;21.04;66.79
63194;BME280;49289;51.670;5.624;2022-09-09T02:55:56;100865.00;;;21.01;66.83
63194;BME280;49289;51.670;5.624;2022-09-09T02:57:43;100844.91;;;20.92;66.81
63194;BME280;49289;51.670;5.624;2022-09-09T02:59:30;100847.33;;;20.93;66.83
63194;BME280;49289;51.670;5.624;2022-09-09T03:01:17;100851.50;;;20.96;66.90
63194;BME280;49289;51.670;5.624;2022-09-09T03:03:04;100853.83;;;20.96;66.83
63194;BME280;49289;51.670;5.624;2022-09-09T03:04:51;100849.50;;;20.78;67.33
63194;BME280;49289;51.670;5.624;2022-09-09T03:06:38;100852.26;;;20.75;67.45
63194;BME280;49289;51.670;5.624;2022-09-09T03:08:25;100855.02;;;20.70;67.62
63194;BME280;49289;51.670;5.624;2022-09-09T03:10:13;100844.75;;;20.73;67.22
63194;BME280;49289;51.670;5.624;2022-09-09T03:12:00;100850.09;;;20.66;67.66
63194;BME280;49289;51.670;5.624;2022-09-09T03:13:47;100849.77;;;20.70;67.42
63194;BME280;49289;51.670;5.624;2022-09-09T03:15:34;100851.59;;;20.70;67.48
63194;BME280;49289;51.670;5.624;2022-09-09T03:17:21;100854.42;;;20.73;67.29
63194;BME280;49289;51.670;5.624;2022-09-09T03:19:08;100853.67;;;20.79;67.16
63194;BME280;49289;51.670;5.624;2022-09-09T03:20:41;100863.11;;;20.91;67.37
63194;BME280;49289;51.670;5.624;2022-09-09T03:22:27;100868.59;;;20.96;67.12
63194;BME280;49289;51.670;5.624;2022-09-09T03:24:15;100865.43;;;20.94;67.18
63194;BME280;49289;51.670;5.624;2022-09-09T03:26:03;100867.86;;;21.04;66.98
63194;BME280;49289;51.670;5.624;2022-09-09T03:27:51;100869.27;;;20.71;67.97
63194;BME280;49289;51.670;5.624;2022-09-09T03:29:39;100866.61;;;20.88;67.71
63194;BME280;49289;51.670;5.624;2022-09-09T03:31:27;100853.84;;;20.90;67.36
63194;BME280;49289;51.670;5.624;2022-09-09T03:33:14;100850.67;;;20.93;67.32
63194;BME280;49289;51.670;5.624;2022-09-09T03:35:01;100851.33;;;20.95;66.97
63194;BME280;49289;51.670;5.624;2022-09-09T03:36:48;100867.67;;;20.98;67.52
63194;BME280;49289;51.670;5.624;2022-09-09T03:38:35;100872.11;;;20.94;67.28
63194;BME280;49289;51.670;5.624;2022-09-09T03:40:22;100871.26;;;21.01;67.25
63194;BME280;49289;51.670;5.624;2022-09-09T03:42:11;100873.28;;;21.06;67.28
63194;BME280;49289;51.670;5.624;2022-09-09T03:43:57;100876.61;;;21.11;66.93
63194;BME280;49289;51.670;5.624;2022-09-09T03:45:46;100871.84;;;21.14;67.21
63194;BME280;49289;51.670;5.624;2022-09-09T03:47:33;100880.69;;;21.13;67.13
63194;BME280;49289;51.670;5.624;2022-09-09T03:49:21;100857.99;;;21.00;67.16
63194;BME280;49289;51.670;5.624;2022-09-09T03:51:10;100863.92;;;20.98;67.14
63194;BME280;49289;51.670;5.624;2022-09-09T03:52:58;100873.03;;;21.08;67.33
63194;BME280;49289;51.670;5.624;2022-09-09T03:54:46;100872.43;;;21.13;67.21
63194;BME280;49289;51.670;5.624;2022-09-09T03:56:34;100873.92;;;21.17;67.24
63194;BME280;49289;51.670;5.624;2022-09-09T03:58:22;100869.16;;;21.20;67.15
63194;BME280;49289;51.670;5.624;2022-09-09T03:59:55;100872.80;;;21.24;67.10
63194;BME280;49289;51.670;5.624;2022-09-09T04:01:43;100870.11;;;21.27;67.08
63194;BME280;49289;51.670;5.624;2022-09-09T04:03:30;100853.23;;;21.13;66.95
63194;BME280;49289;51.670;5.624;2022-09-09T04:05:18;100846.84;;;21.03;66.66
63194;BME280;49289;51.670;5.624;2022-09-09T04:07:05;100849.17;;;21.05;67.44
63194;BME280;49289;51.670;5.624;2022-09-09T04:08:52;100861.75;;;21.12;67.37
63194;BME280;49289;51.670;5.624;2022-09-09T04:10:39;100846.06;;;21.10;67.29
63194;BME280;49289;51.670;5.624;2022-09-09T04:12:11;100842.95;;;21.17;67.17
63194;BME280;49289;51.670;5.624;2022-09-09T04:13:58;100855.14;;;21.18;67.18
63194;BME280;49289;51.670;5.624;2022-09-09T04:15:49;100860.52;;;21.25;67.21
63194;BME280;49289;51.670;5.624;2022-09-09T04:17:34;100858.02;;;21.26;67.38
63194;BME280;49289;51.670;5.624;2022-09-09T04:19:22;100856.69;;;21.25;67.08
63194;BME280;49289;51.670;5.624;2022-09-09T04:21:11;100855.84;;;21.28;67.39
63194;BME280;49289;51.670;5.624;2022-09-09T04:22:48;100842.86;;;21.22;67.27
63194;BME280;49289;51.670;5.624;2022-09-09T04:24:36;100840.78;;;21.20;67.32
63194;BME280;49289;51.670;5.624;2022-09-09T04:26:24;100851.73;;;21.31;67.33
63194;BME280;49289;51.670;5.624;2022-09-09T04:28:12;100848.55;;;21.33;67.34
63194;BME280;49289;51.670;5.624;2022-09-09T04:29:59;100837.97;;;21.13;67.56
63194;BME280;49289;51.670;5.624;2022-09-09T04:31:46;100835.39;;;21.09;67.39
63194;BME280;49289;51.670;5.624;2022-09-09T04:33:33;100840.66;;;21.25;67.41
63194;BME280;49289;51.670;5.624;2022-09-09T04:35:20;100839.56;;;21.27;67.35
63194;BME280;49289;51.670;5.624;2022-09-09T04:37:07;100851.16;;;21.27;67.59
63194;BME280;49289;51.670;5.624;2022-09-09T04:38:54;100836.40;;;21.25;67.60
63194;BME280;49289;51.670;5.624;2022-09-09T04:40:41;100836.22;;;21.27;66.98
63194;BME280;49289;51.670;5.624;2022-09-09T04:42:29;100853.78;;;21.42;67.17
63194;BME280;49289;51.670;5.624;2022-09-09T04:44:17;100845.28;;;21.20;67.74
63194;BME280;49289;51.670;5.624;2022-09-09T04:46:05;100848.05;;;21.36;67.45
63194;BME280;49289;51.670;5.624;2022-09-09T04:47:38;100847.78;;;21.45;67.10
63194;BME280;49289;51.670;5.624;2022-09-09T04:49:27;100849.30;;;21.43;66.87
63194;BME280;49289;51.670;5.624;2022-09-09T04:51:15;100843.45;;;21.20;67.11
63194;BME280;49289;51.670;5.624;2022-09-09T04:53:02;100836.87;;;21.12;67.62
63194;BME280;49289;51.670;5.624;2022-09-09T04:54:49;100837.76;;;20.66;68.70
63194;BME280;49289;51.670;5.624;2022-09-09T04:56:36;100823.58;;;20.67;68.83
63194;BME280;49289;51.670;5.624;2022-09-09T04:58:23;100823.95;;;21.00;67.98
63194;BME280;49289;51.670;5.624;2022-09-09T05:00:11;100822.53;;;21.02;68.06
63194;BME280;49289;51.670;5.624;2022-09-09T05:01:59;100818.47;;;21.03;68.08
63194;BME280;49289;51.670;5.624;2022-09-09T05:03:47;100840.10;;;21.22;67.93
63194;BME280;49289;51.670;5.624;2022-09-09T05:05:34;100829.72;;;21.24;67.73
63194;BME280;49289;51.670;5.624;2022-09-09T05:07:21;100838.71;;;21.23;68.06
63194;BME280;49289;51.670;5.624;2022-09-09T05:09:08;100826.39;;;21.24;67.83
63194;BME280;49289;51.670;5.624;2022-09-09T05:10:55;100838.19;;;21.36;67.81
63194;BME280;49289;51.670;5.624;2022-09-09T05:12:42;100839.35;;;21.38;67.54
63194;BME280;49289;51.670;5.624;2022-09-09T05:14:29;100836.98;;;21.26;67.24
63194;BME280;49289;51.670;5.624;2022-09-09T05:16:17;100818.71;;;20.95;68.14
63194;BME280;49289;51.670;5.624;2022-09-09T05:17:49;100834.88;;;21.00;68.59
63194;BME280;49289;51.670;5.624;2022-09-09T05:19:38;100839.06;;;21.08;68.30
63194;BME280;49289;51.670;5.624;2022-09-09T05:21:26;100837.23;;;21.08;68.37
63194;BME280;49289;51.670;5.624;2022-09-09T05:23:14;100829.66;;;20.70;69.56
63194;BME280;49289;51.670;5.624;2022-09-09T05:25:02;100831.73;;;20.93;68.71
63194;BME280;49289;51.670;5.624;2022-09-09T05:27:48;100821.38;;;20.96;68.20
63194;BME280;49289;51.670;5.624;2022-09-09T05:29:35;100819.30;;;20.96;68.35
63194;BME280;49289;51.670;5.624;2022-09-09T05:31:22;100818.61;;;21.01;68.19
63194;BME280;49289;51.670;5.624;2022-09-09T05:33:09;100819.14;;;20.91;68.63
63194;BME280;49289;51.670;5.624;2022-09-09T05:34:56;100820.95;;;21.11;68.19
63194;BME280;49289;51.670;5.624;2022-09-09T05:36:43;100831.59;;;21.36;67.82
63194;BME280;49289;51.670;5.624;2022-09-09T05:38:30;100825.71;;;21.52;67.23
63194;BME280;49289;51.670;5.624;2022-09-09T05:40:19;100815.66;;;21.21;67.75
63194;BME280;49289;51.670;5.624;2022-09-09T05:42:06;100815.84;;;21.30;67.67
63194;BME280;49289;51.670;5.624;2022-09-09T05:43:53;100815.36;;;21.27;67.86
63194;BME280;49289;51.670;5.624;2022-09-09T05:45:40;100825.95;;;21.29;67.95
63194;BME280;49289;51.670;5.624;2022-09-09T05:47:27;100813.63;;;21.05;68.21
63194;BME280;49289;51.670;5.624;2022-09-09T05:49:14;100824.28;;;21.28;67.62
63194;BME280;49289;51.670;5.624;2022-09-09T05:51:05;100807.94;;;20.99;68.05
63194;BME280;49289;51.670;5.624;2022-09-09T05:52:53;100825.06;;;20.92;68.84
63194;BME280;49289;51.670;5.624;2022-09-09T05:54:41;100824.47;;;20.95;68.64
63194;BME280;49289;51.670;5.624;2022-09-09T05:56:28;100811.20;;;21.08;68.52
63194;BME280;49289;51.670;5.624;2022-09-09T05:58:15;100815.21;;;21.04;67.89
63194;BME280;49289;51.670;5.624;2022-09-09T06:00:02;100836.40;;;20.95;68.27
63194;BME280;49289;51.670;5.624;2022-09-09T06:01:49;100820.33;;;20.66;68.94
63194;BME280;49289;51.670;5.624;2022-09-09T06:03:37;100843.09;;;20.86;69.20
63194;BME280;49289;51.670;5.624;2022-09-09T06:05:23;100847.18;;;20.86;68.94
63194;BME280;49289;51.670;5.624;2022-09-09T06:07:10;100845.41;;;21.09;68.72
63194;BME280;49289;51.670;5.624;2022-09-09T06:08:57;100845.25;;;21.05;68.78
63194;BME280;49289;51.670;5.624;2022-09-09T06:10:29;100846.00;;;21.02;69.08
63194;BME280;49289;51.670;5.624;2022-09-09T06:12:17;100843.81;;;21.11;68.73
63194;BME280;49289;51.670;5.624;2022-09-09T06:14:05;100850.00;;;21.28;68.81
63194;BME280;49289;51.670;5.624;2022-09-09T06:15:57;100850.41;;;20.98;69.22
63194;BME280;49289;51.670;5.624;2022-09-09T06:17:44;100849.25;;;20.75;69.70
63194;BME280;49289;51.670;5.624;2022-09-09T06:19:32;100856.01;;;20.92;68.98
63194;BME280;49289;51.670;5.624;2022-09-09T06:21:21;100850.52;;;20.87;69.33
63194;BME280;49289;51.670;5.624;2022-09-09T06:23:09;100849.98;;;21.01;69.01
63194;BME280;49289;51.670;5.624;2022-09-09T06:24:57;100851.50;;;20.95;69.46
63194;BME280;49289;51.670;5.624;2022-09-09T06:26:45;100851.09;;;20.91;69.21
63194;BME280;49289;51.670;5.624;2022-09-09T06:28:35;100830.48;;;20.20;70.79
63194;BME280;49289;51.670;5.624;2022-09-09T06:30:23;100840.98;;;20.80;69.57
63194;BME280;49289;51.670;5.624;2022-09-09T06:32:11;100843.00;;;21.03;69.27
63194;BME280;49289;51.670;5.624;2022-09-09T06:33:59;100843.23;;;21.11;69.11
63194;BME280;49289;51.670;5.624;2022-09-09T06:35:47;100840.73;;;20.80;69.63
63194;BME280;49289;51.670;5.624;2022-09-09T06:37:34;100826.65;;;20.91;69.71
63194;BME280;49289;51.670;5.624;2022-09-09T06:39:21;100840.23;;;21.10;69.54
63194;BME280;49289;51.670;5.624;2022-09-09T06:41:08;100844.41;;;20.97;69.95
63194;BME280;49289;51.670;5.624;2022-09-09T06:42:55;100851.84;;;21.04;69.28
63194;BME280;49289;51.670;5.624;2022-09-09T06:44:42;100844.84;;;20.87;70.01
63194;BME280;49289;51.670;5.624;2022-09-09T06:46:29;100844.95;;;21.21;69.29
63194;BME280;49289;51.670;5.624;2022-09-09T06:48:16;100845.66;;;21.28;69.21
63194;BME280;49289;51.670;5.624;2022-09-09T06:50:03;100844.69;;;21.22;69.37
63194;BME280;49289;51.670;5.624;2022-09-09T06:51:50;100849.12;;;21.22;68.48
63194;BME280;49289;51.670;5.624;2022-09-09T06:53:37;100829.83;;;20.84;69.19
63194;BME280;49289;51.670;5.624;2022-09-09T06:55:25;100824.87;;;21.02;68.89
63194;BME280;49289;51.670;5.624;2022-09-09T06:57:12;100846.55;;;21.34;68.44
63194;BME280;49289;51.670;5.624;2022-09-09T06:59:00;100840.53;;;21.18;68.64
63194;BME280;49289;51.670;5.624;2022-09-09T07:00:47;100840.59;;;20.84;69.58
63194;BME280;49289;51.670;5.624;2022-09-09T07:02:34;100838.98;;;20.93;69.62
63194;BME280;49289;51.670;5.624;2022-09-09T07:04:21;100837.39;;;21.28;69.01
63194;BME280;49289;51.670;5.624;2022-09-09T07:06:08;100834.12;;;21.15;68.58
63194;BME280;49289;51.670;5.624;2022-09-09T07:07:56;100835.25;;;21.48;68.14
63194;BME280;49289;51.670;5.624;2022-09-09T07:09:29;100838.12;;;21.17;68.78
63194;BME280;49289;51.670;5.624;2022-09-09T07:11:16;100837.44;;;21.37;68.55
63194;BME280;49289;51.670;5.624;2022-09-09T07:13:03;100836.27;;;21.45;68.36
63194;BME280;49289;51.670;5.624;2022-09-09T07:14:50;100835.88;;;21.01;69.13
63194;BME280;49289;51.670;5.624;2022-09-09T07:16:37;100835.72;;;21.00;68.64
63194;BME280;49289;51.670;5.624;2022-09-09T07:18:13;100833.77;;;21.35;68.51
63194;BME280;49289;51.670;5.624;2022-09-09T07:20:01;100831.50;;;21.40;68.55
63194;BME280;49289;51.670;5.624;2022-09-09T07:21:50;100838.59;;;21.40;68.40
63194;BME280;49289;51.670;5.624;2022-09-09T07:23:38;100828.66;;;21.48;67.89
63194;BME280;49289;51.670;5.624;2022-09-09T07:25:26;100841.81;;;21.28;68.37
63194;BME280;49289;51.670;5.624;2022-09-09T07:27:14;100825.59;;;21.44;67.87
63194;BME280;49289;51.670;5.624;2022-09-09T07:29:02;100836.61;;;21.64;67.73
63194;BME280;49289;51.670;5.624;2022-09-09T07:30:52;100839.62;;;21.65;68.17
63194;BME280;49289;51.670;5.624;2022-09-09T07:32:38;100840.45;;;21.60;66.36
63194;BME280;49289;51.670;5.624;2022-09-09T07:34:26;100838.94;;;21.62;68.47
63194;BME280;49289;51.670;5.624;2022-09-09T07:36:18;100836.03;;;21.84;66.83
63194;BME280;49289;51.670;5.624;2022-09-09T07:38:06;100828.42;;;21.65;67.57
63194;BME280;49289;51.670;5.624;2022-09-09T07:39:54;100839.37;;;21.59;66.16
63194;BME280;49289;51.670;5.624;2022-09-09T07:41:42;100837.70;;;21.63;66.18
63194;BME280;49289;51.670;5.624;2022-09-09T07:43:31;100842.63;;;21.83;65.92
63194;BME280;49289;51.670;5.624;2022-09-09T07:45:18;100838.77;;;21.87;65.94
63194;BME280;49289;51.670;5.624;2022-09-09T07:47:06;100835.59;;;21.61;66.07
63194;BME280;49289;51.670;5.624;2022-09-09T07:48:56;100842.43;;;21.69;65.06
63194;BME280;49289;51.670;5.624;2022-09-09T07:50:44;100834.27;;;21.81;64.99
63194;BME280;49289;51.670;5.624;2022-09-09T07:52:32;100835.83;;;22.22;65.22
63194;BME280;49289;51.670;5.624;2022-09-09T07:54:20;100846.60;;;21.49;65.12
63194;BME280;49289;51.670;5.624;2022-09-09T07:56:09;100845.34;;;21.71;65.35
63194;BME280;49289;51.670;5.624;2022-09-09T07:57:55;100828.88;;;21.73;64.38
63194;BME280;49289;51.670;5.624;2022-09-09T07:59:42;100845.66;;;22.54;64.45
63194;BME280;49289;51.670;5.624;2022-09-09T08:01:19;100843.22;;;22.07;63.42
63194;BME280;49289;51.670;5.624;2022-09-09T08:03:05;100829.55;;;22.27;64.67
63194;BME280;49289;51.670;5.624;2022-09-09T08:04:52;100836.80;;;22.61;62.86
63194;BME280;49289;51.670;5.624;2022-09-09T08:06:40;100844.47;;;21.97;63.80
63194;BME280;49289;51.670;5.624;2022-09-09T08:08:27;100843.28;;;22.23;64.06
63194;BME280;49289;51.670;5.624;2022-09-09T08:10:16;100824.86;;;22.37;63.15
63194;BME280;49289;51.670;5.624;2022-09-09T08:12:04;100854.78;;;21.91;63.43
63194;BME280;49289;51.670;5.624;2022-09-09T08:13:37;100852.79;;;22.02;64.02
63194;BME280;49289;51.670;5.624;2022-09-09T08:15:25;100851.55;;;22.10;62.45
63194;BME280;49289;51.670;5.624;2022-09-09T08:17:12;100852.19;;;22.39;64.50
63194;BME280;49289;51.670;5.624;2022-09-09T08:18:59;100845.33;;;22.39;62.83
63194;BME280;49289;51.670;5.624;2022-09-09T08:20:48;100850.55;;;22.20;63.04
63194;BME280;49289;51.670;5.624;2022-09-09T08:22:21;100849.59;;;22.74;61.73
63194;BME280;49289;51.670;5.624;2022-09-09T08:24:09;100850.86;;;22.81;61.45
63194;BME280;49289;51.670;5.624;2022-09-09T08:26:02;100852.14;;;22.49;62.63
63194;BME280;49289;51.670;5.624;2022-09-09T08:27:43;100853.19;;;22.74;60.83
63194;BME280;49289;51.670;5.624;2022-09-09T08:29:30;100851.47;;;22.79;61.40
63194;BME280;49289;51.670;5.624;2022-09-09T08:31:19;100853.59;;;22.45;61.47
63194;BME280;49289;51.670;5.624;2022-09-09T08:33:05;100845.88;;;22.69;59.98
63194;BME280;49289;51.670;5.624;2022-09-09T08:34:54;100852.31;;;22.84;61.01
63194;BME280;49289;51.670;5.624;2022-09-09T08:36:42;100846.58;;;23.07;60.07
63194;BME280;49289;51.670;5.624;2022-09-09T08:38:30;100855.33;;;22.85;61.48
63194;BME280;49289;51.670;5.624;2022-09-09T08:40:22;100854.09;;;22.67;61.39
63194;BME280;49289;51.670;5.624;2022-09-09T08:42:28;100854.34;;;22.75;61.39
63194;BME280;49289;51.670;5.624;2022-09-09T08:44:17;100860.34;;;23.01;61.93
63194;BME280;49289;51.670;5.624;2022-09-09T08:46:04;100866.08;;;21.82;62.57
63194;BME280;49289;51.670;5.624;2022-09-09T08:47:38;100859.76;;;22.34;61.77
63194;BME280;49289;51.670;5.624;2022-09-09T08:49:32;100865.67;;;22.10;62.01
63194;BME280;49289;51.670;5.624;2022-09-09T08:51:17;100865.47;;;22.15;62.31
63194;BME280;49289;51.670;5.624;2022-09-09T08:53:09;100867.56;;;22.54;62.68
63194;BME280;49289;51.670;5.624;2022-09-09T08:54:53;100853.60;;;22.40;60.74
63194;BME280;49289;51.670;5.624;2022-09-09T08:56:41;100870.38;;;22.78;61.61
63194;BME280;49289;51.670;5.624;2022-09-09T08:58:30;100869.77;;;22.00;62.16
63194;BME280;49289;51.670;5.624;2022-09-09T09:00:19;100863.69;;;22.47;61.32
63194;BME280;49289;51.670;5.624;2022-09-09T09:02:13;100867.95;;;22.86;61.07
63194;BME280;49289;51.670;5.624;2022-09-09T09:04:02;100871.97;;;22.94;60.24
63194;BME280;49289;51.670;5.624;2022-09-09T09:05:50;100865.47;;;22.91;60.09
63194;BME280;49289;51.670;5.624;2022-09-09T09:07:42;100869.65;;;22.41;60.97
63194;BME280;49289;51.670;5.624;2022-09-09T09:09:14;100871.77;;;22.65;60.08
63194;BME280;49289;51.670;5.624;2022-09-09T09:11:01;100872.94;;;22.65;59.71
63194;BME280;49289;51.670;5.624;2022-09-09T09:12:48;100872.70;;;22.72;59.32
63194;BME280;49289;51.670;5.624;2022-09-09T09:14:35;100868.11;;;22.94;59.63
63194;BME280;49289;51.670;5.624;2022-09-09T09:16:26;100872.94;;;22.89;60.85
63194;BME280;49289;51.670;5.624;2022-09-09T09:18:12;100874.88;;;22.87;59.38
63194;BME280;49289;51.670;5.624;2022-09-09T09:20:00;100866.56;;;22.83;59.77
63194;BME280;49289;51.670;5.624;2022-09-09T09:21:34;100870.48;;;23.00;59.71
63194;BME280;49289;51.670;5.624;2022-09-09T09:23:22;100877.36;;;22.28;60.91